Accueil
METAR-TAF:

METAR-TAF

Aéroports :

Sabadell, Espagne

latitude: 41-31N, longitude: 002-06E, altitude: 250 m

Observation

Le bulletin a été fait il y a 46 minutes, à 02:00 UTC
Vent 1 kt de direction variable
Température 19°C
Humidité 78%
Pression 1016 hPa
Visibilité 10 km ou plus
pas de nuages en-dessous de 1500 mètres et pas de cumulonimbus.

METAR: LELL 020200Z AUTO VRB01KT CAVOK 19/15 Q1016

Heure: 04:46 (02:46 UTC)

Prévision

Le bulletin a été fait il y a 46 minutes, à 02:00 UTC
Prévision valable du 02 à 03 UTC au 03 à 03 UTC
Vent 4 kt de nord-est
Visibilité 10 km ou plus
Quelques nuages à une hauteur de 3000 ft
Evoluant progressivement
du 02 à 09 UTC au 02 à 11 UTC
Vent 10 kt de sud-est
Evoluant progressivement
du 02 à 18 UTC au 02 à 20 UTC
Vent 3 kt de direction variable

TAF: LELL 020200Z 0203/0303 05004KT 9999 FEW030 TX27/0213Z TN16/0205Z BECMG 0209/0211 14010KT BECMG 0218/0220 VRB03KT

Observations et prévisions météorologiques de plus de 4000 aéroports (messages METAR et TAF).

Les stations disponibles sont représentées par des disques jaunes et rouges sur la carte.

Passer la souris dessus pour voir le nom de la station.

Cliquer dessus pour voir les observations et prévisions météorologiques.

Pour changer de carte: cliquez sur les boutons verts avec une croix noire pour zoomer, sur le bouton vert avec un tiret pour effectuer un zoom arrière, ou sur les flèches vertes pour les cartes adjacentes.


METAR-TAF: